Time;durP1;ratioP1;P1;durP2;ratioP2;P2;SDS_P1;SDS_P2;PMS_P1;PMS_P2;Temp;Humidity;BMP_temperature;BMP_pressure;BME280_temperature;BME280_humidity;BME280_pressure;Samples;Min_cycle;Max_cycle;Signal;HPM_P1;HPM_P2
2022/10/29 00:00:53;;;;;;;;;17.67;16.00;;;;;20.77;63.38;101667.81;6217563;22;45514;-74
2022/10/29 00:03:19;;;;;;;;;14.33;11.00;;;;;20.76;63.38;101657.13;6189481;22;47071;-75
2022/10/29 00:05:59;;;;;;;;;11.67;11.67;;;;;20.75;63.42;101633.97;6215506;22;45368;-75
2022/10/29 00:08:25;;;;;;;;;13.33;13.33;;;;;20.78;63.51;101640.09;6217157;22;45217;-74
2022/10/29 00:10:51;;;;;;;;;16.00;13.33;;;;;20.83;63.21;101653.34;6217459;22;45221;-74
2022/10/29 00:13:16;;;;;;;;;13.00;10.67;;;;;20.75;63.15;101642.88;6217545;22;45158;-74
2022/10/29 00:15:42;;;;;;;;;13.67;12.33;;;;;20.72;63.15;101621.56;6217626;22;45203;-74
2022/10/29 00:18:07;;;;;;;;;13.00;13.00;;;;;20.72;63.04;101616.22;6190250;22;45303;-74
2022/10/29 00:20:32;;;;;;;;;10.33;9.33;;;;;20.70;62.88;101629.63;6217328;22;45197;-74
2022/10/29 00:22:58;;;;;;;;;14.67;13.33;;;;;20.64;62.96;101615.59;6217317;22;45268;-74
2022/10/29 00:25:23;;;;;;;;;11.33;11.00;;;;;20.66;62.92;101625.31;6217878;22;45387;-73
2022/10/29 00:27:48;;;;;;;;;13.00;10.67;;;;;20.67;63.23;101613.69;6217724;22;45273;-74
2022/10/29 00:30:14;;;;;;;;;16.33;13.00;;;;;20.68;63.39;101619.91;6217700;22;45302;-74
2022/10/29 00:32:39;;;;;;;;;13.00;12.33;;;;;20.65;63.79;101609.31;6217137;22;45392;-74
2022/10/29 00:35:05;;;;;;;;;13.67;13.33;;;;;20.66;63.50;101613.72;6217535;22;45344;-74
2022/10/29 00:37:30;;;;;;;;;15.33;12.67;;;;;20.61;63.29;101605.88;6217603;22;45253;-74
2022/10/29 00:39:55;;;;;;;;;14.50;14.00;;;;;20.61;63.68;101610.31;6190067;22;45599;-74
2022/10/29 00:42:21;;;;;;;;;13.33;12.00;;;;;20.53;63.30;101582.88;6217360;22;46473;-74
2022/10/29 00:44:46;;;;;;;;;15.25;13.50;;;;;20.57;63.67;101606.88;6217284;22;45300;-74
2022/10/29 00:47:26;;;;;;;;;12.33;12.33;;;;;20.57;63.47;101582.78;6217181;22;45291;-74
2022/10/29 00:50:01;;;;;;;;;14.33;11.33;;;;;20.57;63.23;101573.88;6190123;22;45222;-74
2022/10/29 00:52:31;;;;;;;;;15.33;14.00;;;;;20.57;63.47;101582.78;6217261;22;45492;-74
2022/10/29 00:55:01;;;;;;;;;15.00;13.00;;;;;20.55;63.75;101584.63;6189644;22;45423;-74
2022/10/29 00:57:35;;;;;;;;;14.00;12.33;;;;;20.54;63.78;101587.38;6217329;22;45234;-74
2022/10/29 01:00:01;;;;;;;;;15.00;13.00;;;;;20.49;63.70;101580.31;6217207;22;45158;-74
2022/10/29 01:02:28;;;;;;;;;14.00;12.33;;;;;20.53;63.57;101574.88;6216672;22;45289;-74
2022/10/29 01:04:54;;;;;;;;;13.00;12.67;;;;;20.51;63.67;101569.59;6217219;22;45422;-74
2022/10/29 01:07:21;;;;;;;;;15.33;13.33;;;;;20.55;63.92;101573.06;6217571;22;45189;-74
2022/10/29 01:09:47;;;;;;;;;12.33;12.00;;;;;20.53;63.78;101545.44;6217150;22;45309;-74
2022/10/29 01:12:49;;;;;;;;;13.67;12.00;;;;;20.54;63.68;101544.56;6217265;22;45398;-74
2022/10/29 01:15:21;;;;;;;;;16.33;13.67;;;;;20.53;63.57;101540.09;6217579;22;45399;-73
2022/10/29 01:18:07;;;;;;;;;16.00;13.00;;;;;20.46;63.86;101537.63;6216957;22;45234;-75
2022/10/29 01:21:06;;;;;;;;;16.25;12.50;;;;;20.47;63.70;101549.19;6216923;22;45322;-74
2022/10/29 01:23:50;;;;;;;;;15.00;15.00;;;;;20.43;63.81;101535.03;6217092;22;45386;-74
2022/10/29 01:26:53;;;;;;;;;14.25;13.00;;;;;20.42;63.89;101535.97;6217009;22;45204;-74
2022/10/29 01:29:24;;;;;;;;;14.50;13.50;;;;;20.38;63.84;101536.13;6216846;22;45461;-74
2022/10/29 01:31:57;;;;;;;;;16.00;14.75;;;;;20.32;63.84;101533.66;6217424;22;45169;-74
2022/10/29 01:34:42;;;;;;;;;13.67;13.67;;;;;20.34;64.40;101540.69;6216706;22;45723;-74
2022/10/29 01:37:46;;;;;;;;;16.25;16.25;;;;;20.32;64.25;101539.88;6189580;22;45376;-73
2022/10/29 01:40:32;;;;;;;;;15.75;12.50;;;;;20.29;64.51;101529.28;6217097;22;45308;-74
2022/10/29 01:43:12;;;;;;;;;15.75;14.00;;;;;20.23;63.99;101513.41;6217018;22;45359;-74
2022/10/29 01:45:50;;;;;;;;;14.00;13.75;;;;;20.24;64.30;101532.09;6217063;22;45569;-74
2022/10/29 01:48:21;;;;;;;;;14.33;14.33;;;;;20.21;64.43;101532.19;6216434;22;45289;-74
2022/10/29 01:50:53;;;;;;;;;16.33;13.33;;;;;20.19;64.55;101528.69;6217287;22;45190;-74
2022/10/29 01:53:20;;;;;;;;;17.00;13.33;;;;;20.18;64.37;101497.53;6216749;22;45209;-74
2022/10/29 01:55:45;;;;;;;;;15.25;13.25;;;;;20.15;64.08;101500.28;6216815;22;45254;-74
2022/10/29 01:58:12;;;;;;;;;16.67;14.00;;;;;20.10;64.15;101493.31;6216757;22;45123;-74
2022/10/29 02:01:00;;;;;;;;;14.67;14.67;;;;;20.08;64.47;101488.03;6217126;22;45107;-74
2022/10/29 02:03:35;;;;;;;;;15.75;14.75;;;;;20.12;64.16;101492.34;6189183;22;45478;-74
2022/10/29 02:06:26;;;;;;;;;15.00;14.33;;;;;20.11;64.44;101500.44;6216857;22;45328;-74
2022/10/29 02:09:06;;;;;;;;;14.00;12.00;;;;;20.08;63.89;101482.69;6181888;22;45471;-75
2022/10/29 02:11:49;;;;;;;;;14.67;13.67;;;;;20.07;64.30;101478.25;6217002;22;45280;-74
2022/10/29 02:14:21;;;;;;;;;16.00;13.67;;;;;20.01;64.16;101463.28;6216982;22;45411;-74
2022/10/29 02:16:48;;;;;;;;;17.00;14.25;;;;;20.00;64.30;101458.88;6216906;22;46378;-74
2022/10/29 02:19:13;;;;;;;;;14.00;12.75;;;;;19.98;64.14;101452.69;6189039;22;45595;-74
2022/10/29 02:21:39;;;;;;;;;13.00;12.00;;;;;20.01;64.09;101459.75;6217074;22;45364;-74
2022/10/29 02:24:06;;;;;;;;;13.00;11.00;;;;;19.98;64.08;101468.72;6216497;22;45626;-75
2022/10/29 02:26:31;;;;;;;;;13.25;13.25;;;;;19.97;63.71;101467.00;6213633;22;47232;-75
2022/10/29 02:28:57;;;;;;;;;17.25;12.75;;;;;19.99;63.97;101470.50;6216573;22;45343;-74
2022/10/29 02:31:23;;;;;;;;;16.50;13.75;;;;;19.97;63.81;101456.28;6217399;22;45296;-75
2022/10/29 02:33:49;;;;;;;;;11.00;11.00;;;;;19.98;64.01;101451.81;6216702;22;45996;-75
2022/10/29 02:36:14;;;;;;;;;16.75;14.25;;;;;19.97;63.86;101447.41;6217180;22;46250;-74
2022/10/29 02:38:39;;;;;;;;;13.33;13.33;;;;;19.94;63.96;101443.03;6216873;22;45271;-75
2022/10/29 02:41:05;;;;;;;;;14.25;11.50;;;;;19.98;64.07;101452.69;6217110;22;45268;-74
2022/10/29 02:43:30;;;;;;;;;14.33;10.67;;;;;19.93;63.72;101446.59;6216889;22;45370;-75
2022/10/29 02:46:17;;;;;;;;;14.00;14.00;;;;;19.96;63.50;101449.19;6217015;22;45259;-75
2022/10/29 02:48:43;;;;;;;;;15.25;14.25;;;;;19.94;63.65;101447.47;6216143;22;45298;-74
2022/10/29 02:51:09;;;;;;;;;12.50;11.25;;;;;19.91;63.76;101440.44;6216789;22;45344;-75
2022/10/29 02:53:35;;;;;;;;;13.33;13.33;;;;;19.93;63.95;101437.72;6216578;22;45354;-74
2022/10/29 02:56:01;;;;;;;;;14.33;12.67;;;;;19.89;63.81;101422.69;6216623;22;45536;-74
2022/10/29 02:58:26;;;;;;;;;15.00;13.33;;;;;19.92;63.85;101427.97;6216766;22;45286;-75
2022/10/29 03:00:52;;;;;;;;;12.33;10.67;;;;;19.90;63.60;101422.66;6216913;22;45185;-75
2022/10/29 03:03:17;;;;;;;;;13.33;11.33;;;;;19.89;63.69;101428.03;6216241;22;45542;-75
2022/10/29 03:05:42;;;;;;;;;14.67;13.33;;;;;19.90;63.26;101422.66;6189640;22;47372;-75
2022/10/29 03:08:08;;;;;;;;;15.00;15.00;;;;;19.89;63.70;101420.03;6216621;22;45340;-75
2022/10/29 03:10:34;;;;;;;;;15.75;13.75;;;;;19.86;63.51;101415.69;6216704;22;45138;-74
2022/10/29 03:12:59;;;;;;;;;15.33;14.33;;;;;19.87;63.83;101424.56;6216621;22;45203;-75
2022/10/29 03:15:25;;;;;;;;;11.33;10.67;;;;;19.83;63.50;101405.97;6216598;22;45299;-75
2022/10/29 03:17:50;;;;;;;;;16.67;14.00;;;;;19.82;63.63;101414.88;6216118;22;45162;-75
2022/10/29 03:20:16;;;;;;;;;15.00;14.00;;;;;19.83;63.32;101413.06;6216155;22;45359;-75
2022/10/29 03:22:41;;;;;;;;;16.00;14.75;;;;;19.81;63.59;101414.94;6217385;22;45158;-75
2022/10/29 03:25:07;;;;;;;;;14.00;14.00;;;;;19.81;63.68;101429.19;6190567;22;46176;-75
2022/10/29 03:27:40;;;;;;;;;15.25;13.75;;;;;19.80;63.53;101421.19;6217597;22;45118;-74
2022/10/29 03:30:07;;;;;;;;;13.00;13.00;;;;;19.76;63.59;101403.53;6190598;22;45231;-74
2022/10/29 03:32:33;;;;;;;;;13.25;13.00;;;;;19.81;63.36;101413.16;6217119;22;45125;-75
2022/10/29 03:34:58;;;;;;;;;13.75;12.00;;;;;19.81;63.27;101414.94;6217807;22;46123;-74
2022/10/29 03:37:23;;;;;;;;;10.00;7.67;;;;;19.76;63.44;101415.09;6217763;22;45315;-75
2022/10/29 03:39:49;;;;;;;;;15.00;13.33;;;;;19.77;63.41;101415.94;6217491;22;45185;-74
2022/10/29 03:42:14;;;;;;;;;14.67;13.00;;;;;19.77;63.27;101421.28;6217654;22;45406;-75
2022/10/29 03:44:39;;;;;;;;;18.50;14.75;;;;;19.78;63.14;101429.28;6217672;22;45319;-75
2022/10/29 03:47:07;;;;;;;;;15.33;14.33;;;;;19.70;63.45;101425.97;6217192;22;45838;-74
2022/10/29 03:49:32;;;;;;;;;18.67;16.33;;;;;19.69;63.26;101402.81;6218026;22;45328;-74
2022/10/29 03:51:57;;;;;;;;;11.25;10.50;;;;;19.66;63.31;101394.00;6190033;22;45489;-74
2022/10/29 03:54:23;;;;;;;;;13.00;11.75;;;;;19.61;63.38;101378.97;6217472;22;46033;-74
2022/10/29 03:56:48;;;;;;;;;9.67;8.00;;;;;19.55;63.41;101380.97;6217695;22;45303;-74
2022/10/29 03:59:13;;;;;;;;;14.33;13.33;;;;;19.63;63.13;101404.78;6217984;22;45123;-75
2022/10/29 04:01:39;;;;;;;;;14.75;14.00;;;;;19.57;63.08;101382.69;6217697;22;45256;-74
2022/10/29 04:04:04;;;;;;;;;13.00;10.00;;;;;19.64;63.44;101388.69;6190670;22;48019;-74
2022/10/29 04:06:29;;;;;;;;;15.67;12.67;;;;;19.59;63.01;101382.63;6190245;22;45193;-74
2022/10/29 04:08:55;;;;;;;;;17.00;14.00;;;;;19.60;63.23;101398.63;6218039;22;45158;-74
2022/10/29 04:11:21;;;;;;;;;13.00;12.33;;;;;19.57;62.97;101398.72;6217630;22;45176;-75
2022/10/29 04:13:46;;;;;;;;;13.33;13.00;;;;;19.59;62.98;101407.56;6217842;22;46397;-74
2022/10/29 04:16:12;;;;;;;;;12.33;11.00;;;;;19.57;62.90;101403.19;6217569;22;45244;-75
2022/10/29 04:18:37;;;;;;;;;13.33;11.67;;;;;19.56;62.90;101409.44;6217589;22;45094;-75
2022/10/29 04:21:03;;;;;;;;;12.67;12.67;;;;;19.57;62.87;101411.19;6217223;22;45189;-74
2022/10/29 04:23:28;;;;;;;;;15.67;14.33;;;;;19.60;62.87;101421.78;6189881;22;48432;-74
2022/10/29 04:25:57;;;;;;;;;12.00;12.00;;;;;19.55;63.15;101415.72;6217452;22;45415;-75
2022/10/29 04:28:23;;;;;;;;;12.67;12.33;;;;;19.57;62.92;101413.88;6217161;22;45368;-75
2022/10/29 04:30:49;;;;;;;;;15.00;13.67;;;;;19.61;62.69;101421.72;6217162;22;45201;-74
2022/10/29 04:33:14;;;;;;;;;14.00;13.75;;;;;19.53;62.76;101402.38;6216398;22;46425;-75
2022/10/29 04:35:39;;;;;;;;;13.50;13.50;;;;;19.53;62.74;101397.03;6217549;22;45170;-74
2022/10/29 04:38:09;;;;;;;;;16.25;12.00;;;;;19.51;63.08;101401.59;6190082;22;45199;-74
2022/10/29 04:40:35;;;;;;;;;14.50;12.75;;;;;19.55;63.21;101400.56;6216995;22;45459;-74
2022/10/29 04:43:00;;;;;;;;;13.00;12.67;;;;;19.52;63.26;101397.09;6217209;22;45356;-75
2022/10/29 04:45:25;;;;;;;;;14.00;12.67;;;;;19.54;62.67;101395.25;6217374;22;45375;-75
2022/10/29 04:47:59;;;;;;;;;17.25;13.25;;;;;19.51;62.76;101390.00;6217409;22;45339;-75
2022/10/29 04:50:25;;;;;;;;;12.67;11.67;;;;;19.50;62.75;101389.13;6216978;22;45371;-75
2022/10/29 04:52:50;;;;;;;;;12.75;12.00;;;;;19.57;62.75;101403.19;6216933;22;46474;-75
2022/10/29 04:55:15;;;;;;;;;13.33;13.33;;;;;19.53;62.93;101402.38;6217325;22;45332;-75
2022/10/29 04:57:41;;;;;;;;;13.25;11.75;;;;;19.54;63.00;101406.81;6217784;22;45609;-74
2022/10/29 05:00:07;;;;;;;;;11.33;10.33;;;;;19.51;62.81;101388.22;6217556;22;45371;-74
2022/10/29 05:02:34;;;;;;;;;11.33;11.33;;;;;19.50;62.93;101377.56;6216824;22;45509;-75
2022/10/29 05:04:59;;;;;;;;;14.00;13.50;;;;;19.50;62.92;101381.13;6217403;22;45158;-74
2022/10/29 05:07:25;;;;;;;;;15.25;13.75;;;;;19.56;62.91;101394.28;6217537;22;45103;-74
2022/10/29 05:09:50;;;;;;;;;16.67;15.67;;;;;19.55;63.16;101389.88;6217336;22;45217;-75
2022/10/29 05:12:15;;;;;;;;;14.33;13.33;;;;;19.53;63.04;101385.50;6217384;22;45261;-74
2022/10/29 05:14:41;;;;;;;;;12.75;11.25;;;;;19.44;62.80;101377.78;6217214;22;45083;-74
2022/10/29 05:17:06;;;;;;;;;13.67;13.00;;;;;19.36;62.85;101378.00;6217192;22;45091;-74
2022/10/29 05:19:31;;;;;;;;;11.50;10.00;;;;;19.40;63.13;101384.97;6189203;22;45473;-75
2022/10/29 05:21:57;;;;;;;;;14.75;13.25;;;;;19.33;63.09;101370.09;6216800;22;46419;-74
2022/10/29 05:24:22;;;;;;;;;13.67;13.67;;;;;19.30;63.39;101367.47;6216751;22;45094;-75
2022/10/29 05:26:47;;;;;;;;;12.50;11.75;;;;;19.28;63.31;101361.34;6217439;22;45154;-75
2022/10/29 05:29:13;;;;;;;;;13.25;11.50;;;;;19.24;63.43;101363.22;6189926;22;45453;-75
2022/10/29 05:31:38;;;;;;;;;14.00;12.00;;;;;19.22;63.59;101356.16;6217089;22;46511;-75
2022/10/29 05:34:03;;;;;;;;;14.25;11.50;;;;;19.17;63.46;101353.66;6216731;22;45370;-75
2022/10/29 05:36:29;;;;;;;;;15.00;13.00;;;;;19.15;62.98;101352.81;6217248;22;45300;-76
2022/10/29 05:38:54;;;;;;;;;12.75;11.00;;;;;19.15;63.44;101360.81;6189914;22;45354;-75
2022/10/29 05:41:20;;;;;;;;;13.00;13.00;;;;;19.12;63.03;101342.22;6189266;22;47830;-75
2022/10/29 05:43:49;;;;;;;;;10.00;10.00;;;;;19.08;63.56;101329.88;6216637;22;45428;-76
2022/10/29 05:46:15;;;;;;;;;14.50;13.00;;;;;19.08;63.08;101324.53;6217435;22;45300;-76
2022/10/29 05:48:41;;;;;;;;;13.67;11.33;;;;;19.12;63.39;101337.75;6216844;22;45411;-76
2022/10/29 05:51:06;;;;;;;;;13.00;11.33;;;;;19.05;63.19;101329.97;6217220;22;45296;-75
2022/10/29 05:53:31;;;;;;;;;9.00;8.75;;;;;19.08;63.44;101341.44;6217113;22;45078;-75
2022/10/29 05:55:58;;;;;;;;;12.00;12.00;;;;;19.07;63.07;101333.47;6189984;22;45235;-75
2022/10/29 05:58:23;;;;;;;;;12.33;12.33;;;;;19.08;63.69;101343.22;6189471;22;45199;-75
2022/10/29 06:00:49;;;;;;;;;8.00;7.00;;;;;19.05;63.79;101343.31;6216908;22;46212;-75
2022/10/29 06:03:18;;;;;;;;;20.25;16.25;;;;;19.08;63.44;101349.44;6188414;22;45346;-75
2022/10/29 06:05:45;;;;;;;;;11.33;9.33;;;;;19.00;63.80;101337.25;6190013;22;45378;-76
2022/10/29 06:08:11;;;;;;;;;17.75;15.25;;;;;19.01;63.37;101344.34;6216835;22;45205;-75
2022/10/29 06:10:37;;;;;;;;;11.00;9.33;;;;;18.97;63.31;101324.00;6216474;22;45269;-77
2022/10/29 06:13:11;;;;;;;;;14.00;13.50;;;;;18.99;63.39;101319.50;6216741;22;45130;-76
2022/10/29 06:15:36;;;;;;;;;13.75;12.50;;;;;19.01;63.48;101321.19;6189716;22;45442;-74
2022/10/29 06:18:01;;;;;;;;;13.33;12.00;;;;;18.98;63.57;101331.97;6216588;22;45515;-74
2022/10/29 06:20:27;;;;;;;;;11.50;10.50;;;;;18.99;63.52;101343.50;6188746;22;47176;-75
2022/10/29 06:22:57;;;;;;;;;12.00;12.00;;;;;18.96;63.63;101349.81;6216692;22;45133;-75
2022/10/29 06:25:23;;;;;;;;;9.00;9.00;;;;;18.95;63.16;101342.69;6216937;22;45336;-74
2022/10/29 06:28:05;;;;;;;;;12.67;11.33;;;;;18.91;63.74;101335.72;6216611;22;45296;-75
2022/10/29 06:30:32;;;;;;;;;13.33;10.33;;;;;18.99;63.23;101349.72;6216674;22;45379;-75
2022/10/29 06:32:58;;;;;;;;;14.67;13.33;;;;;18.90;63.56;101340.19;6216533;22;45362;-75
2022/10/29 06:35:24;;;;;;;;;11.75;11.75;;;;;18.89;63.18;101334.88;6216856;22;45442;-75
2022/10/29 06:37:49;;;;;;;;;11.67;11.67;;;;;18.95;63.61;101353.38;6216351;22;45213;-75
2022/10/29 06:40:15;;;;;;;;;19.00;14.50;;;;;18.92;63.31;101356.13;6216406;22;45495;-78
2022/10/29 06:42:40;;;;;;;;;12.67;10.00;;;;;18.93;63.36;101348.09;6216402;22;45094;-75
2022/10/29 06:45:07;;;;;;;;;16.25;13.00;;;;;18.98;63.15;101358.66;6216723;22;45177;-75
2022/10/29 06:47:43;;;;;;;;;15.33;13.33;;;;;18.98;63.67;101347.97;6216588;22;45421;-77
2022/10/29 06:50:12;;;;;;;;;14.33;13.33;;;;;19.03;63.70;101340.72;6215850;22;45352;-77
2022/10/29 06:52:37;;;;;;;;;16.00;15.33;;;;;19.01;63.47;101325.66;6216651;22;45202;-77
2022/10/29 06:55:05;;;;;;;;;16.50;14.25;;;;;19.03;63.25;101331.81;6215801;22;45296;-77
2022/10/29 06:57:30;;;;;;;;;12.50;11.50;;;;;18.99;63.70;101335.50;6189278;22;45107;-75
2022/10/29 06:59:56;;;;;;;;;17.75;16.75;;;;;18.97;63.77;101334.66;6216152;22;45270;-76
2022/10/29 07:02:22;;;;;;;;;17.50;13.75;;;;;19.03;63.57;101342.47;6216257;22;45223;-75
2022/10/29 07:04:48;;;;;;;;;15.25;14.00;;;;;19.08;63.68;101332.56;6216431;22;45159;-75
2022/10/29 07:07:14;;;;;;;;;14.50;12.75;;;;;19.01;63.52;101315.88;6216489;22;45461;-75
2022/10/29 07:09:41;;;;;;;;;13.33;13.33;;;;;19.08;62.99;101328.09;6215802;22;46276;-75
2022/10/29 07:12:07;;;;;;;;;16.00;12.67;;;;;19.05;63.22;101320.16;6215962;22;45289;-75
2022/10/29 07:14:32;;;;;;;;;15.50;14.00;;;;;19.04;63.35;101318.44;6216494;22;45307;-76
2022/10/29 07:16:58;;;;;;;;;12.75;12.25;;;;;19.12;63.29;101329.75;6215844;22;45601;-75
2022/10/29 07:19:23;;;;;;;;;15.00;14.75;;;;;19.15;63.50;101318.97;6215680;22;45435;-77
2022/10/29 07:21:48;;;;;;;;;11.50;11.50;;;;;19.15;63.40;101321.66;6216039;22;45194;-76
2022/10/29 07:24:32;;;;;;;;;15.75;14.25;;;;;19.21;63.06;101325.06;6215871;22;45159;-78
2022/10/29 07:26:57;;;;;;;;;14.25;11.00;;;;;19.16;63.35;101315.41;6188739;22;45203;-75
2022/10/29 07:29:22;;;;;;;;;15.00;14.75;;;;;19.16;63.57;101317.19;6187025;22;46272;-75
2022/10/29 07:31:48;;;;;;;;;12.67;12.00;;;;;19.20;63.10;101318.84;6187251;22;45748;-75
2022/10/29 07:34:13;;;;;;;;;18.75;15.50;;;;;19.22;63.24;101326.78;6215126;22;45359;-76
2022/10/29 07:36:38;;;;;;;;;14.00;12.75;;;;;19.23;63.03;101328.56;6215960;22;45289;-74
2022/10/29 07:39:06;;;;;;;;;19.50;15.50;;;;;19.27;62.77;101323.09;6215296;22;45245;-75
2022/10/29 07:41:31;;;;;;;;;16.00;14.50;;;;;19.24;62.79;101320.50;6187330;22;45266;-75
2022/10/29 07:43:57;;;;;;;;;15.50;14.25;;;;;19.33;62.84;101335.38;6215682;22;45439;-75
2022/10/29 07:46:22;;;;;;;;;17.25;16.50;;;;;19.32;62.56;101338.94;6188064;22;45404;-75
2022/10/29 07:48:47;;;;;;;;;25.50;23.00;;;;;19.35;62.76;101331.75;6187331;22;46961;-75
2022/10/29 07:51:13;;;;;;;;;15.00;13.25;;;;;19.44;62.45;101337.72;6188315;22;45130;-75
2022/10/29 07:53:38;;;;;;;;;13.33;11.33;;;;;19.43;62.49;101336.81;6215557;22;45292;-75
2022/10/29 07:56:04;;;;;;;;;12.67;12.67;;;;;19.46;62.05;101335.84;6215788;22;45138;-75
2022/10/29 07:58:29;;;;;;;;;13.67;11.33;;;;;19.44;62.35;101329.72;6215760;22;45434;-76
2022/10/29 08:00:54;;;;;;;;;27.25;25.00;;;;;19.50;62.31;101343.72;6187897;22;45320;-75
2022/10/29 08:03:20;;;;;;;;;14.00;14.00;;;;;19.52;61.87;101339.22;6215666;22;45304;-74
2022/10/29 08:05:48;;;;;;;;;11.00;10.00;;;;;19.55;61.96;101340.91;6215755;22;45327;-75
2022/10/29 08:08:13;;;;;;;;;10.67;10.67;;;;;19.59;61.74;101342.56;6216507;22;46189;-75
2022/10/29 08:10:38;;;;;;;;;16.67;14.00;;;;;19.61;61.45;101340.72;6217151;22;45300;-75
2022/10/29 08:13:05;;;;;;;;;15.00;13.00;;;;;19.60;61.58;101334.50;6189769;22;45637;-75
2022/10/29 08:15:32;;;;;;;;;10.00;10.00;;;;;19.75;61.55;101354.56;6189648;22;45128;-76
2022/10/29 08:17:57;;;;;;;;;14.67;12.00;;;;;19.79;61.39;101348.19;6189300;22;47208;-75
2022/10/29 08:20:26;;;;;;;;;14.33;13.67;;;;;19.87;60.79;101352.41;6189579;22;45238;-76
2022/10/29 08:22:51;;;;;;;;;14.00;12.00;;;;;19.91;60.90;101359.38;6189273;22;45307;-75
2022/10/29 08:25:17;;;;;;;;;12.33;12.00;;;;;19.90;60.46;101341.63;6216464;22;45276;-75
2022/10/29 08:27:43;;;;;;;;;12.33;12.33;;;;;19.95;60.56;101356.56;6216585;22;46489;-75
2022/10/29 08:30:11;;;;;;;;;11.33;11.00;;;;;19.99;60.01;101355.56;6216952;22;45368;-75
2022/10/29 08:32:46;;;;;;;;;13.00;10.00;;;;;20.00;60.19;101346.59;6188484;22;45277;-75
2022/10/29 08:35:12;;;;;;;;;15.33;14.00;;;;;20.04;60.08;101355.38;6216275;22;45179;-75
2022/10/29 08:37:41;;;;;;;;;16.00;13.33;;;;;20.08;60.17;101358.84;6216736;22;45231;-75
2022/10/29 08:40:13;;;;;;;;;9.00;9.00;;;;;20.05;59.67;101346.47;6216731;22;45287;-75
2022/10/29 08:42:54;;;;;;;;;11.33;9.00;;;;;20.07;59.46;101357.94;6216710;22;45185;-75
2022/10/29 08:45:44;;;;;;;;;16.00;12.00;;;;;20.15;59.36;101361.25;6216779;22;45114;-75
2022/10/29 08:48:27;;;;;;;;;13.00;12.33;;;;;20.23;59.07;101364.56;6216089;22;46321;-75
2022/10/29 08:51:21;;;;;;;;;13.00;11.00;;;;;20.28;59.38;101361.72;6216090;22;45169;-75
2022/10/29 08:53:53;;;;;;;;;15.33;10.00;;;;;20.35;59.34;101352.56;6198965;22;45416;-75
2022/10/29 08:56:24;;;;;;;;;12.00;12.00;;;;;20.45;58.63;101358.47;6216517;22;45289;-75
2022/10/29 08:58:55;;;;;;;;;8.00;8.00;;;;;20.46;58.18;101347.69;6216548;22;45317;-74
2022/10/29 09:01:21;;;;;;;;;15.00;12.67;;;;;20.61;58.54;101346.31;6216646;22;45274;-75
2022/10/29 09:03:48;;;;;;;;;14.33;11.33;;;;;20.72;58.06;101340.59;6213682;22;45221;-75
2022/10/29 09:06:24;;;;;;;;;11.00;11.00;;;;;20.79;57.96;101336.72;6216281;22;45405;-75
2022/10/29 09:08:55;;;;;;;;;13.00;11.67;;;;;20.96;57.41;101340.63;6216294;22;45255;-75
2022/10/29 09:11:43;;;;;;;;;14.33;12.00;;;;;21.03;57.76;101334.94;6188674;22;45249;-75
2022/10/29 09:14:36;;;;;;;;;29.25;28.50;;;;;21.19;57.56;101340.59;6216459;22;45183;-75
2022/10/29 09:17:17;;;;;;;;;67.25;54.50;;;;;21.29;57.22;101352.69;6216017;22;45459;-75
2022/10/29 09:19:59;;;;;;;;;33.00;30.00;;;;;21.39;56.80;101353.25;6215439;22;46357;-75
2022/10/29 09:22:48;;;;;;;;;31.75;27.75;;;;;21.48;56.58;101346.66;6188461;22;45300;-75
2022/10/29 09:25:22;;;;;;;;;16.33;12.00;;;;;21.50;55.86;101336.75;6187993;22;45389;-76
2022/10/29 09:28:12;;;;;;;;;12.00;12.00;;;;;21.62;56.07;101343.44;6216041;22;45424;-75
2022/10/29 09:30:57;;;;;;;;;11.00;11.00;;;;;21.63;55.75;101329.97;6215802;22;46430;-76
2022/10/29 09:33:24;;;;;;;;;11.00;10.00;;;;;21.69;55.54;101334.22;6216026;22;45403;-75
2022/10/29 09:35:55;;;;;;;;;12.00;10.00;;;;;21.72;54.98;101326.91;6189042;22;45503;-75
2022/10/29 09:38:29;;;;;;;;;13.67;11.33;;;;;21.80;54.65;101331.97;6216284;22;45122;-75
2022/10/29 09:41:00;;;;;;;;;12.00;9.00;;;;;21.85;54.80;101326.41;6188591;22;46967;-75
2022/10/29 09:43:44;;;;;;;;;12.33;10.33;;;;;21.93;54.55;101343.94;6215601;22;45355;-76
2022/10/29 09:46:27;;;;;;;;;12.00;11.67;;;;;21.96;55.06;101341.13;6216386;22;45479;-76
2022/10/29 09:49:00;;;;;;;;;9.33;8.67;;;;;21.97;54.24;101340.19;6215724;22;45189;-75
2022/10/29 09:51:26;;;;;;;;;11.33;10.33;;;;;22.07;54.21;101337.13;6188260;22;46291;-75
2022/10/29 09:53:51;;;;;;;;;9.33;9.33;;;;;22.09;54.28;101325.38;6215865;22;45194;-75
2022/10/29 09:56:17;;;;;;;;;11.67;11.00;;;;;22.11;54.16;101315.47;6216643;22;45226;-76
2022/10/29 09:58:45;;;;;;;;;10.67;10.00;;;;;22.14;53.93;101326.06;6216314;22;45233;-75
2022/10/29 10:01:12;;;;;;;;;20.50;18.75;;;;;22.13;53.67;101320.75;6216044;22;46513;-75
2022/10/29 10:03:44;;;;;;;;;14.00;10.33;;;;;22.19;53.32;101328.59;6215604;22;45375;-75
2022/10/29 10:06:12;;;;;;;;;14.00;12.00;;;;;22.18;53.38;101329.47;6215540;22;45395;-75
2022/10/29 10:08:58;;;;;;;;;10.00;8.67;;;;;22.28;53.48;101330.00;6188229;22;45384;-75
2022/10/29 10:11:26;;;;;;;;;15.00;10.00;;;;;22.34;53.15;101340.47;6215369;22;45389;-75
2022/10/29 10:13:56;;;;;;;;;11.00;10.67;;;;;22.42;52.89;101330.25;6187718;22;45173;-75
2022/10/29 10:16:24;;;;;;;;;11.67;10.00;;;;;22.43;53.04;101319.47;6216119;22;45348;-76
2022/10/29 10:18:49;;;;;;;;;10.00;10.00;;;;;22.56;52.71;101327.88;6188536;22;45376;-75
2022/10/29 10:21:30;;;;;;;;;12.67;11.67;;;;;22.68;52.86;101321.94;6215183;22;46056;-75
2022/10/29 10:23:56;;;;;;;;;11.67;9.00;;;;;22.86;52.51;101317.53;6215712;22;45430;-75
2022/10/29 10:26:26;;;;;;;;;13.00;12.00;;;;;23.04;51.87;101321.25;6215969;22;45384;-75
2022/10/29 10:29:22;;;;;;;;;14.00;13.00;;;;;23.27;51.55;101319.28;6215956;22;45257;-75
2022/10/29 10:31:55;;;;;;;;;11.00;11.00;;;;;23.47;51.40;101308.44;6215610;22;45237;-75
2022/10/29 10:34:25;;;;;;;;;12.67;11.00;;;;;23.77;51.02;101319.53;6215846;22;45408;-75
2022/10/29 10:36:54;;;;;;;;;17.50;16.75;;;;;23.98;49.92;101322.97;6188678;22;45285;-76
2022/10/29 10:39:29;;;;;;;;;10.33;8.33;;;;;24.21;50.34;101319.09;6215004;22;45531;-75
2022/10/29 10:41:58;;;;;;;;;8.33;8.00;;;;;24.49;49.30;101312.31;6215289;22;46310;-75
2022/10/29 10:44:24;;;;;;;;;8.33;8.00;;;;;25.03;48.75;101314.78;6215491;22;45184;-75
2022/10/29 10:46:53;;;;;;;;;11.00;8.00;;;;;26.23;47.48;101292.63;6215722;22;45434;-75
2022/10/29 10:49:31;;;;;;;;;8.00;8.00;;;;;27.83;45.56;101294.19;6188582;22;45488;-75
2022/10/29 10:51:58;;;;;;;;;11.33;8.67;;;;;29.30;43.62;101284.78;6215505;22;45414;-75
2022/10/29 10:54:35;;;;;;;;;9.67;8.33;;;;;30.10;40.59;101285.09;6215528;22;45240;-75
2022/10/29 10:57:01;;;;;;;;;13.00;9.33;;;;;29.87;39.35;101287.69;6188011;22;45459;-75
2022/10/29 11:00:08;;;;;;;;;9.33;8.33;;;;;29.67;39.46;101286.53;6187582;22;45404;-75
2022/10/29 11:02:52;;;;;;;;;12.33;9.67;;;;;30.21;38.76;101276.97;6207420;22;46477;-76
2022/10/29 11:05:19;;;;;;;;;7.00;5.33;;;;;30.55;37.51;101275.19;6215560;22;45240;-76
2022/10/29 11:07:51;;;;;;;;;7.00;6.67;;;;;30.65;36.94;101280.75;6215685;22;45242;-76
2022/10/29 11:10:24;;;;;;;;;10.00;7.33;;;;;30.38;36.32;101283.81;6188255;22;45318;-76
2022/10/29 11:12:54;;;;;;;;;8.67;8.67;;;;;29.96;36.52;101285.25;6187984;22;46313;-75
2022/10/29 11:15:39;;;;;;;;;11.33;9.00;;;;;29.63;36.64;101290.41;6215844;22;45176;-76
2022/10/29 11:18:30;;;;;;;;;11.00;7.33;;;;;29.39;36.40;101292.25;6215610;22;45157;-76
2022/10/29 11:21:15;;;;;;;;;8.00;8.00;;;;;29.27;36.29;101290.44;6187705;22;45427;-76
2022/10/29 11:24:04;;;;;;;;;7.33;6.33;;;;;29.12;36.46;101306.00;6215664;22;45298;-75